KGSO/GSO METAR and TAF weather

Enter ICAO airport designator
Station Type Date Time Source
KGSO METAR 2019/04/26 03:54 UTC NOAA

KGSO 260354Z 20004KT 10SM -RA SCT065 BKN110 OVC180 20/16 A2983 RMK AO2 RAB34 SLP092 P0000 T02000161


Station Type Date Time Source
KGSO Decoded METAR 2019/04/26 03:54 UTC NOAA

PIEDMONT TRIAD INTERNATIONAL AIRPORT , NC, United States (KGSO) 36-06N 079-57W 275M
Apr 25, 2019 - 11:54 PM EDT / 2019.04.26 0354 UTC
Wind: from the SSW (200 degrees) at 5 MPH (4 KT):0
Visibility: 10 mile(s):0
Sky conditions: overcast
Weather: light rain
Precipitation last hour: A trace
Temperature: 68.0 F (20.0 C)
Dew Point: 61.0 F (16.1 C)
Relative Humidity: 78%
Pressure (altimeter): 29.83 in. Hg (1010 hPa)
ob: KGSO 260354Z 20004KT 10SM -RA SCT065 BKN110 OVC180 20/16 A2983 RMK AO2 RAB34 SLP092 P0000 T02000161
cycle: 4

Station Type Date Time Source
KGSO TAF 2019/04/25 18:33 UTC NOAA

TAF KGSO 251730Z 2518/2618 VRB03KT P6SM SCT150 BKN250
FM252100 21008KT P6SM FEW050 BKN200
FM260600 20007KT P6SM FEW025 BKN050 OVC100
FM261000 20007KT P6SM VCSH BKN015 BKN080
FM261500 22011G22KT 6SM -SHRA BR BKN035

Example: see airport list